Time;durP1;ratioP1;P1;durP2;ratioP2;P2;SDS_P1;SDS_P2;PMS_P1;PMS_P2;Temp;Humidity;BMP_temperature;BMP_pressure;BME280_temperature;BME280_humidity;BME280_pressure;Samples;Min_cycle;Max_cycle;Signal;HPM_P1;HPM_P2
2022/12/10 00:01:04;;;;;;;;;;;;;;;;;;5097469;28;19958;-73
2022/12/10 00:03:30;;;;;;;;;;;;;;;;;;5096935;28;19976;-72
2022/12/10 00:05:56;;;;;;;;;;;;;;;;;;5079141;28;19916;-73
2022/12/10 00:08:22;;;;;;;;;;;;;;;;;;5097192;28;19908;-73
2022/12/10 00:10:48;;;;;;;;;;;;;;;;;;5096881;28;19979;-73
2022/12/10 00:13:13;;;;;;;;;;;;;;;;;;5097214;28;19908;-73
2022/12/10 00:15:39;;;;;;;;;;;;;;;;;;5097563;28;19908;-73
2022/12/10 00:18:05;;;;;;;;;;;;;;;;;;5096451;28;19912;-72
2022/12/10 00:20:31;;;;;;;;;;;;;;;;;;5078800;28;20367;-72
2022/12/10 00:22:57;;;;;;;;;;;;;;;;;;5096954;28;20301;-72
2022/12/10 00:25:23;;;;;;;;;;;;;;;;;;5096599;28;19966;-73
2022/12/10 00:27:49;;;;;;;;;;;;;;;;;;5096820;28;19934;-73
2022/12/10 00:30:15;;;;;;;;;;;;;;;;;;5097034;28;19908;-73
2022/12/10 00:32:41;;;;;;;;;;;;;;;;;;5078183;28;19995;-73
2022/12/10 00:35:07;;;;;;;;;;;;;;;;;;5096828;28;19908;-74
2022/12/10 00:37:33;;;;;;;;;;;;;;;;;;5078576;28;19914;-74
2022/12/10 00:39:59;;;;;;;;;;;;;;;;;;5077933;28;19916;-74
2022/12/10 00:42:25;;;;;;;;;;;;;;;;;;5096969;28;19908;-73
2022/12/10 00:44:51;;;;;;;;;;;;;;;;;;5096546;28;19908;-74
2022/12/10 00:47:17;;;;;;;;;;;;;;;;;;5096154;28;19915;-73
2022/12/10 00:49:43;;;;;;;;;;;;;;;;;;5096454;28;19942;-74
2022/12/10 00:52:09;;;;;;;;;;;;;;;;;;5095918;28;19912;-73
2022/12/10 00:54:35;;;;;;;;;;;;;;;;;;5095965;28;19909;-74
2022/12/10 00:57:01;;;;;;;;;;;;;;;;;;5096342;28;19912;-74
2022/12/10 00:59:27;;;;;;;;;;;;;;;;;;5096208;28;19952;-73
2022/12/10 01:01:52;;;;;;;;;;;;;;;;;;5095917;28;20352;-73
2022/12/10 01:04:18;;;;;;;;;;;;;;;;;;5096440;28;20331;-73
2022/12/10 01:06:44;;;;;;;;;;;;;;;;;;5095812;28;19916;-74
2022/12/10 01:09:10;;;;;;;;;;;;;;;;;;5096222;28;19918;-73
2022/12/10 01:11:39;;;;;;;;;;;;;;;;;;5077904;28;20006;-73
2022/12/10 01:14:05;;;;;;;;;;;;;;;;;;5095600;28;19954;-73
2022/12/10 01:16:31;;;;;;;;;;;;;;;;;;5095972;28;19909;-74
2022/12/10 01:18:58;;;;;;;;;;;;;;;;;;5095633;28;19920;-73
2022/12/10 01:21:24;;;;;;;;;;;;;;;;;;5095552;28;20409;-74
2022/12/10 01:23:49;;;;;;;;;;;;;;;;;;5095767;28;19908;-74
2022/12/10 01:26:15;;;;;;;;;;;;;;;;;;5095739;28;19908;-74
2022/12/10 01:28:41;;;;;;;;;;;;;;;;;;5077197;28;20065;-74
2022/12/10 01:31:07;;;;;;;;;;;;;;;;;;5095624;28;19908;-74
2022/12/10 01:33:33;;;;;;;;;;;;;;;;;;5077577;28;19957;-74
2022/12/10 01:35:59;;;;;;;;;;;;;;;;;;5077011;28;19909;-75
2022/12/10 01:38:25;;;;;;;;;;;;;;;;;;5077254;28;19916;-75
2022/12/10 01:40:51;;;;;;;;;;;;;;;;;;5095464;28;19930;-74
2022/12/10 01:43:17;;;;;;;;;;;;;;;;;;5095028;28;19912;-74
2022/12/10 01:45:43;;;;;;;;;;;;;;;;;;5077227;28;20023;-74
2022/12/10 01:48:09;;;;;;;;;;;;;;;;;;5077188;28;19908;-74
2022/12/10 01:50:35;;;;;;;;;;;;;;;;;;5076796;28;19908;-74
2022/12/10 01:53:01;;;;;;;;;;;;;;;;;;5095247;28;20026;-74
2022/12/10 01:55:27;;;;;;;;;;;;;;;;;;5095215;28;19915;-74
2022/12/10 01:57:53;;;;;;;;;;;;;;;;;;5094765;28;19954;-74
2022/12/10 02:00:19;;;;;;;;;;;;;;;;;;5095124;28;20007;-74
2022/12/10 02:02:44;;;;;;;;;;;;;;;;;;5094255;28;19915;-74
2022/12/10 02:05:10;;;;;;;;;;;;;;;;;;5094596;28;19912;-74
2022/12/10 02:07:36;;;;;;;;;;;;;;;;;;5095166;28;19943;-74
2022/12/10 02:10:02;;;;;;;;;;;;;;;;;;5094668;28;19915;-74
2022/12/10 02:12:28;;;;;;;;;;;;;;;;;;5094944;28;19908;-73
2022/12/10 02:14:54;;;;;;;;;;;;;;;;;;5094847;28;19943;-73
2022/12/10 02:17:20;;;;;;;;;;;;;;;;;;5094433;28;19927;-73
2022/12/10 02:19:46;;;;;;;;;;;;;;;;;;5094403;28;20349;-73
2022/12/10 02:22:12;;;;;;;;;;;;;;;;;;5094631;28;19995;-73
2022/12/10 02:24:38;;;;;;;;;;;;;;;;;;5094627;28;19908;-73
2022/12/10 02:27:04;;;;;;;;;;;;;;;;;;5094536;28;20349;-73
2022/12/10 02:29:30;;;;;;;;;;;;;;;;;;5094485;28;19914;-73
2022/12/10 02:31:56;;;;;;;;;;;;;;;;;;5094252;28;19908;-73
2022/12/10 02:34:22;;;;;;;;;;;;;;;;;;5094416;28;19908;-73
2022/12/10 02:36:48;;;;;;;;;;;;;;;;;;5076269;28;19908;-74
2022/12/10 02:39:14;;;;;;;;;;;;;;;;;;5093866;28;20007;-74
2022/12/10 02:41:40;;;;;;;;;;;;;;;;;;5094392;28;19947;-75
2022/12/10 02:44:06;;;;;;;;;;;;;;;;;;5094410;28;19908;-73
2022/12/10 02:46:32;;;;;;;;;;;;;;;;;;5093969;28;19942;-72
2022/12/10 02:48:58;;;;;;;;;;;;;;;;;;5094542;28;19908;-77
2022/12/10 02:51:24;;;;;;;;;;;;;;;;;;5094290;28;19915;-72
2022/12/10 02:53:50;;;;;;;;;;;;;;;;;;5093818;28;19908;-73
2022/12/10 02:56:16;;;;;;;;;;;;;;;;;;5094229;28;20020;-73
2022/12/10 02:58:42;;;;;;;;;;;;;;;;;;5093986;28;19912;-73
2022/12/10 03:01:07;;;;;;;;;;;;;;;;;;5093665;28;19918;-73
2022/12/10 03:03:33;;;;;;;;;;;;;;;;;;5094016;28;19912;-73
2022/12/10 03:05:59;;;;;;;;;;;;;;;;;;5093942;28;19944;-73
2022/12/10 03:08:25;;;;;;;;;;;;;;;;;;5075474;28;19995;-73
2022/12/10 03:10:51;;;;;;;;;;;;;;;;;;5093955;28;20340;-73
2022/12/10 03:13:17;;;;;;;;;;;;;;;;;;5093487;28;19912;-73
2022/12/10 03:15:43;;;;;;;;;;;;;;;;;;5093705;28;19915;-73
2022/12/10 03:18:09;;;;;;;;;;;;;;;;;;5093539;28;20349;-73
2022/12/10 03:20:35;;;;;;;;;;;;;;;;;;5093620;28;19908;-73
2022/12/10 03:23:01;;;;;;;;;;;;;;;;;;5093950;28;19916;-73
2022/12/10 03:25:27;;;;;;;;;;;;;;;;;;5093961;28;19909;-73
2022/12/10 03:27:53;;;;;;;;;;;;;;;;;;5093667;28;19962;-73
2022/12/10 03:30:19;;;;;;;;;;;;;;;;;;5093754;28;19916;-73
2022/12/10 03:32:45;;;;;;;;;;;;;;;;;;5093709;28;19908;-73
2022/12/10 03:35:11;;;;;;;;;;;;;;;;;;5093427;28;20011;-73
2022/12/10 03:37:37;;;;;;;;;;;;;;;;;;5093835;28;19915;-73
2022/12/10 03:40:03;;;;;;;;;;;;;;;;;;5093818;28;19916;-73
2022/12/10 03:42:29;;;;;;;;;;;;;;;;;;5093429;28;19947;-73
2022/12/10 03:44:55;;;;;;;;;;;;;;;;;;5093661;28;19915;-73
2022/12/10 03:47:20;;;;;;;;;;;;;;;;;;5075415;28;19935;-73
2022/12/10 03:49:46;;;;;;;;;;;;;;;;;;5074900;28;19908;-73
2022/12/10 03:52:12;;;;;;;;;;;;;;;;;;5093408;28;19953;-73
2022/12/10 03:54:38;;;;;;;;;;;;;;;;;;5093479;28;19916;-73
2022/12/10 03:57:04;;;;;;;;;;;;;;;;;;5093024;28;19912;-73
2022/12/10 03:59:30;;;;;;;;;;;;;;;;;;5075223;28;19920;-73
2022/12/10 04:01:56;;;;;;;;;;;;;;;;;;5093405;28;19915;-74
2022/12/10 04:04:22;;;;;;;;;;;;;;;;;;5074827;28;19916;-73
2022/12/10 04:06:48;;;;;;;;;;;;;;;;;;5093368;28;19909;-74
2022/12/10 04:09:14;;;;;;;;;;;;;;;;;;5093393;28;19961;-73
2022/12/10 04:11:40;;;;;;;;;;;;;;;;;;5092966;28;19919;-74
2022/12/10 04:16:51;;;;;;;;;;;;;;;;;;5092928;28;19969;-73
2022/12/10 04:19:17;;;;;;;;;;;;;;;;;;5092982;28;19920;-73
2022/12/10 04:27:12;;;;;;;;;;;;;;;;;;5095984;28;19938;-73
2022/12/10 04:29:38;;;;;;;;;;;;;;;;;;5096798;28;19908;-73
2022/12/10 04:32:04;;;;;;;;;;;;;;;;;;5078240;28;19908;-73
2022/12/10 04:34:30;;;;;;;;;;;;;;;;;;5096643;28;19935;-73
2022/12/10 04:36:56;;;;;;;;;;;;;;;;;;5096684;28;19908;-72
2022/12/10 04:39:22;;;;;;;;;;;;;;;;;;5096168;28;19923;-73
2022/12/10 04:41:48;;;;;;;;;;;;;;;;;;5096613;28;19908;-73
2022/12/10 04:44:14;;;;;;;;;;;;;;;;;;5096566;28;19978;-72
2022/12/10 04:46:40;;;;;;;;;;;;;;;;;;5096150;28;19908;-74
2022/12/10 04:49:06;;;;;;;;;;;;;;;;;;5097073;28;19912;-72
2022/12/10 04:51:32;;;;;;;;;;;;;;;;;;5096371;28;20364;-73
2022/12/10 04:53:57;;;;;;;;;;;;;;;;;;5096006;28;20439;-73
2022/12/10 04:56:23;;;;;;;;;;;;;;;;;;5096337;28;19908;-73
2022/12/10 04:58:49;;;;;;;;;;;;;;;;;;5095846;28;20376;-73
2022/12/10 05:01:15;;;;;;;;;;;;;;;;;;5096589;28;20341;-73
2022/12/10 05:03:41;;;;;;;;;;;;;;;;;;5096752;28;19934;-73
2022/12/10 05:06:07;;;;;;;;;;;;;;;;;;5095727;28;20315;-72
2022/12/10 05:08:33;;;;;;;;;;;;;;;;;;5077911;28;19934;-73
2022/12/10 05:10:59;;;;;;;;;;;;;;;;;;5096050;28;19908;-72
2022/12/10 05:13:25;;;;;;;;;;;;;;;;;;5077541;28;19955;-73
2022/12/10 05:15:51;;;;;;;;;;;;;;;;;;5096254;28;19908;-74
2022/12/10 05:18:17;;;;;;;;;;;;;;;;;;5095562;28;19965;-73
2022/12/10 05:20:43;;;;;;;;;;;;;;;;;;5095401;28;19950;-73
2022/12/10 05:23:27;;;;;;;;;;;;;;;;;;5095873;28;19908;-73
2022/12/10 05:25:53;;;;;;;;;;;;;;;;;;5077584;28;19913;-73
2022/12/10 05:28:19;;;;;;;;;;;;;;;;;;5095457;28;20050;-73
2022/12/10 05:30:45;;;;;;;;;;;;;;;;;;5095663;28;20280;-73
2022/12/10 05:33:11;;;;;;;;;;;;;;;;;;5095674;28;19912;-73
2022/12/10 05:35:37;;;;;;;;;;;;;;;;;;5095071;28;20010;-74
2022/12/10 05:38:03;;;;;;;;;;;;;;;;;;5095586;28;19908;-74
2022/12/10 05:40:29;;;;;;;;;;;;;;;;;;5095497;28;19912;-74
2022/12/10 05:42:55;;;;;;;;;;;;;;;;;;5076885;28;19914;-74
2022/12/10 05:45:21;;;;;;;;;;;;;;;;;;5077208;28;19912;-74
2022/12/10 05:47:47;;;;;;;;;;;;;;;;;;5095303;28;19912;-73
2022/12/10 05:50:13;;;;;;;;;;;;;;;;;;5076766;28;19934;-74
2022/12/10 05:52:39;;;;;;;;;;;;;;;;;;5095276;28;19953;-74
2022/12/10 05:55:05;;;;;;;;;;;;;;;;;;5094808;28;19908;-74
2022/12/10 05:57:30;;;;;;;;;;;;;;;;;;5095111;28;19956;-74
2022/12/10 05:59:56;;;;;;;;;;;;;;;;;;5095089;28;19951;-74
2022/12/10 06:02:22;;;;;;;;;;;;;;;;;;5094779;28;19908;-73
2022/12/10 06:04:48;;;;;;;;;;;;;;;;;;5094981;28;19908;-73
2022/12/10 06:07:14;;;;;;;;;;;;;;;;;;5095007;28;19908;-74
2022/12/10 06:09:40;;;;;;;;;;;;;;;;;;5094522;28;19916;-73
2022/12/10 06:12:06;;;;;;;;;;;;;;;;;;5076652;28;19908;-73
2022/12/10 06:14:32;;;;;;;;;;;;;;;;;;5095031;28;19908;-73
2022/12/10 06:16:58;;;;;;;;;;;;;;;;;;5094473;28;19962;-73
2022/12/10 06:19:24;;;;;;;;;;;;;;;;;;5094593;28;20372;-74
2022/12/10 06:21:50;;;;;;;;;;;;;;;;;;5094852;28;20490;-74
2022/12/10 06:24:16;;;;;;;;;;;;;;;;;;5094269;28;20325;-74
2022/12/10 06:26:42;;;;;;;;;;;;;;;;;;5076524;28;20314;-72
2022/12/10 06:29:08;;;;;;;;;;;;;;;;;;5076408;28;19940;-72
2022/12/10 06:31:34;;;;;;;;;;;;;;;;;;5094160;28;19931;-71
2022/12/10 06:34:00;;;;;;;;;;;;;;;;;;5077009;28;20299;-74
2022/12/10 06:36:26;;;;;;;;;;;;;;;;;;5094445;28;19908;-74
2022/12/10 06:38:52;;;;;;;;;;;;;;;;;;5094056;28;20387;-74
2022/12/10 06:41:18;;;;;;;;;;;;;;;;;;5094378;28;20279;-74
2022/12/10 06:43:44;;;;;;;;;;;;;;;;;;5094230;28;19960;-73
2022/12/10 06:46:09;;;;;;;;;;;;;;;;;;5075636;28;19908;-73
2022/12/10 06:48:35;;;;;;;;;;;;;;;;;;5093737;28;19908;-73
2022/12/10 06:51:01;;;;;;;;;;;;;;;;;;5094173;28;19913;-73
2022/12/10 06:53:27;;;;;;;;;;;;;;;;;;5075575;28;20010;-73
2022/12/10 06:55:53;;;;;;;;;;;;;;;;;;5094067;28;20319;-73
2022/12/10 06:58:19;;;;;;;;;;;;;;;;;;5093723;28;19915;-73
2022/12/10 07:00:45;;;;;;;;;;;;;;;;;;5094066;28;20309;-73
2022/12/10 07:03:11;;;;;;;;;;;;;;;;;;5094089;28;19912;-74
2022/12/10 07:05:37;;;;;;;;;;;;;;;;;;5093682;28;19912;-74
2022/12/10 07:08:03;;;;;;;;;;;;;;;;;;5094113;28;19966;-73
2022/12/10 07:10:29;;;;;;;;;;;;;;;;;;5075908;28;20360;-73
2022/12/10 07:12:55;;;;;;;;;;;;;;;;;;5093565;28;19908;-73
2022/12/10 07:15:23;;;;;;;;;;;;;;;;;;5094026;28;19912;-73
2022/12/10 07:17:48;;;;;;;;;;;;;;;;;;5093770;28;19953;-73
2022/12/10 07:20:14;;;;;;;;;;;;;;;;;;5093376;28;19920;-73
2022/12/10 07:22:40;;;;;;;;;;;;;;;;;;5093936;28;19919;-73
2022/12/10 07:25:06;;;;;;;;;;;;;;;;;;5093898;28;19940;-73
2022/12/10 07:27:32;;;;;;;;;;;;;;;;;;5093454;28;19934;-74
2022/12/10 07:29:58;;;;;;;;;;;;;;;;;;5093836;28;19921;-74
2022/12/10 07:32:24;;;;;;;;;;;;;;;;;;5093868;28;20489;-74
2022/12/10 07:34:50;;;;;;;;;;;;;;;;;;5093378;28;19920;-74
2022/12/10 07:37:16;;;;;;;;;;;;;;;;;;5094401;28;20368;-75
2022/12/10 07:39:42;;;;;;;;;;;;;;;;;;5093626;28;20387;-76
2022/12/10 07:42:08;;;;;;;;;;;;;;;;;;5093470;28;19971;-73
2022/12/10 07:44:34;;;;;;;;;;;;;;;;;;5075448;28;19908;-72
2022/12/10 07:47:00;;;;;;;;;;;;;;;;;;5093751;28;19987;-72
2022/12/10 07:49:26;;;;;;;;;;;;;;;;;;5093253;28;20253;-72
2022/12/10 07:51:52;;;;;;;;;;;;;;;;;;5093572;28;19934;-72
2022/12/10 07:54:18;;;;;;;;;;;;;;;;;;5093553;28;19908;-73
2022/12/10 07:56:44;;;;;;;;;;;;;;;;;;5093243;28;19908;-73
2022/12/10 07:59:10;;;;;;;;;;;;;;;;;;5093621;28;19985;-73
2022/12/10 08:01:36;;;;;;;;;;;;;;;;;;5095430;28;19915;-73
2022/12/10 08:04:02;;;;;;;;;;;;;;;;;;5097407;28;20360;-73
2022/12/10 08:06:28;;;;;;;;;;;;;;;;;;5097449;28;19909;-73
2022/12/10 08:08:54;;;;;;;;;;;;;;;;;;5096942;28;19930;-73
2022/12/10 08:11:20;;;;;;;;;;;;;;;;;;5097240;28;19961;-73
2022/12/10 08:13:46;;;;;;;;;;;;;;;;;;5097246;28;19955;-73
2022/12/10 08:16:12;;;;;;;;;;;;;;;;;;5078608;28;19908;-72
2022/12/10 08:18:38;;;;;;;;;;;;;;;;;;5096895;28;20380;-74
2022/12/10 08:21:03;;;;;;;;;;;;;;;;;;5097108;28;19908;-72
2022/12/10 08:23:29;;;;;;;;;;;;;;;;;;5096795;28;19915;-72
2022/12/10 08:25:55;;;;;;;;;;;;;;;;;;5078892;28;19936;-72
2022/12/10 08:28:21;;;;;;;;;;;;;;;;;;5096997;28;19915;-74
2022/12/10 08:30:47;;;;;;;;;;;;;;;;;;5096452;28;19931;-72
2022/12/10 08:33:13;;;;;;;;;;;;;;;;;;5096864;28;19990;-72
2022/12/10 08:35:39;;;;;;;;;;;;;;;;;;5096785;28;19995;-73
2022/12/10 08:38:05;;;;;;;;;;;;;;;;;;5096355;28;19995;-73
2022/12/10 08:40:31;;;;;;;;;;;;;;;;;;5096636;28;19916;-72
2022/12/10 08:42:57;;;;;;;;;;;;;;;;;;5078485;28;19958;-72
2022/12/10 08:45:23;;;;;;;;;;;;;;;;;;5096226;28;20360;-75
2022/12/10 08:47:49;;;;;;;;;;;;;;;;;;5096597;28;20371;-76
2022/12/10 08:50:15;;;;;;;;;;;;;;;;;;5096634;28;20395;-74
2022/12/10 08:52:41;;;;;;;;;;;;;;;;;;5078011;28;20364;-74
2022/12/10 08:55:07;;;;;;;;;;;;;;;;;;5078354;28;19908;-74
2022/12/10 08:57:33;;;;;;;;;;;;;;;;;;5096388;28;19908;-74
2022/12/10 08:59:59;;;;;;;;;;;;;;;;;;5095854;28;19917;-73
2022/12/10 09:02:25;;;;;;;;;;;;;;;;;;5078155;28;19954;-74
2022/12/10 09:04:51;;;;;;;;;;;;;;;;;;5096434;28;19912;-72
2022/12/10 09:07:17;;;;;;;;;;;;;;;;;;5096060;28;19915;-74
2022/12/10 09:09:43;;;;;;;;;;;;;;;;;;5077984;28;19908;-73
2022/12/10 09:12:09;;;;;;;;;;;;;;;;;;5095327;28;19912;-72
2022/12/10 09:14:38;;;;;;;;;;;;;;;;;;5096031;28;19908;-72
2022/12/10 09:17:04;;;;;;;;;;;;;;;;;;5095933;28;19987;-73
2022/12/10 09:19:30;;;;;;;;;;;;;;;;;;5095311;28;20019;-72
2022/12/10 09:21:55;;;;;;;;;;;;;;;;;;5095851;28;19994;-73
2022/12/10 09:24:21;;;;;;;;;;;;;;;;;;5095846;28;19915;-72
2022/12/10 09:26:47;;;;;;;;;;;;;;;;;;5095389;28;19912;-73
2022/12/10 09:29:13;;;;;;;;;;;;;;;;;;5095651;28;19912;-73
2022/12/10 09:33:54;;;;;;;;;;;;;;;;;;5111250;27;19912;-73
2022/12/10 09:36:20;;;;;;;;;;;;;;;;;;5111509;28;19934;-73
2022/12/10 09:38:46;;;;;;;;;;;;;;;;;;5111506;28;19908;-75
2022/12/10 09:41:12;;;;;;;;;;;;;;;;;;5111090;28;19958;-74
2022/12/10 09:43:38;;;;;;;;;;;;;;;;;;5111620;28;19909;-72
2022/12/10 09:46:04;;;;;;;;;;;;;;;;;;5110145;28;19948;-72
2022/12/10 09:50:41;;;;;;;;;;;;;;;;;;5111703;27;20306;-73
2022/12/10 09:53:07;;;;;;;;;;;;;;;;;;5111614;28;20007;-72
2022/12/10 09:55:33;;;;;;;;;;;;;;;;;;5111112;28;20330;-72
2022/12/10 09:57:59;;;;;;;;;;;;;;;;;;5111599;28;20280;-75
2022/12/10 10:00:25;;;;;;;;;;;;;;;;;;5111471;28;19915;-73
2022/12/10 10:02:51;;;;;;;;;;;;;;;;;;5111200;28;20356;-73
2022/12/10 10:05:17;;;;;;;;;;;;;;;;;;5110175;28;20321;-73
2022/12/10 10:07:42;;;;;;;;;;;;;;;;;;5111403;28;19931;-73
2022/12/10 10:10:08;;;;;;;;;;;;;;;;;;5110828;28;19916;-73
2022/12/10 10:13:40;;;;;;;;;;;;;;;;;;5092174;27;19912;-73
2022/12/10 10:19:18;;;;;;;;;;;;;;;;;;5091353;27;19912;-73
2022/12/10 10:21:44;;;;;;;;;;;;;;;;;;5091276;28;20007;-74
2022/12/10 10:24:10;;;;;;;;;;;;;;;;;;5090872;28;20430;-74
2022/12/10 10:26:36;;;;;;;;;;;;;;;;;;5089821;28;19909;-73
2022/12/10 10:31:02;;;;;;;;;;;;;;;;;;5111416;27;20302;-73
2022/12/10 10:33:28;;;;;;;;;;;;;;;;;;5111746;28;20006;-73
2022/12/10 10:38:03;;;;;;;;;;;;;;;;;;5111429;27;19922;-73
2022/12/10 10:43:11;;;;;;;;;;;;;;;;;;5111652;27;19912;-75
2022/12/10 10:45:37;;;;;;;;;;;;;;;;;;5111256;28;20435;-74
2022/12/10 10:48:03;;;;;;;;;;;;;;;;;;5111488;28;19908;-74
2022/12/10 10:50:29;;;;;;;;;;;;;;;;;;5109765;28;19919;-74
2022/12/10 10:52:55;;;;;;;;;;;;;;;;;;5111864;28;19912;-74
2022/12/10 10:56:31;;;;;;;;;;;;;;;;;;5112208;27;20121;-73
2022/12/10 11:00:29;;;;;;;;;;;;;;;;;;5091701;28;19923;-73
2022/12/10 11:02:54;;;;;;;;;;;;;;;;;;5091262;28;19913;-73
2022/12/10 11:10:02;;;;;;;;;;;;;;;;;;5091501;28;19912;-73
2022/12/10 11:12:28;;;;;;;;;;;;;;;;;;5090834;28;19919;-75
2022/12/10 11:14:54;;;;;;;;;;;;;;;;;;5091210;28;20419;-75
2022/12/10 11:21:16;;;;;;;;;;;;;;;;;;5112110;27;19912;-72
2022/12/10 11:25:13;;;;;;;;;;;;;;;;;;5111652;27;19916;-72
2022/12/10 11:27:39;;;;;;;;;;;;;;;;;;5111168;28;20002;-72
2022/12/10 11:30:05;;;;;;;;;;;;;;;;;;5111665;28;19909;-72
2022/12/10 11:33:55;;;;;;;;;;;;;;;;;;5111392;27;19916;-73
2022/12/10 11:37:55;;;;;;;;;;;;;;;;;;5175351;27;19922;-73
2022/12/10 11:40:21;;;;;;;;;;;;;;;;;;5154582;27;19911;-73
2022/12/10 11:44:26;;;;;;;;;;;;;;;;;;5112208;27;19916;-73
2022/12/10 11:46:52;;;;;;;;;;;;;;;;;;5109909;28;20007;-72
2022/12/10 11:49:18;;;;;;;;;;;;;;;;;;5111539;28;19908;-73
2022/12/10 11:54:15;;;;;;;;;;;;;;;;;;5111722;27;19923;-73
2022/12/10 11:56:41;;;;;;;;;;;;;;;;;;5111618;28;19912;-73
2022/12/10 11:59:07;;;;;;;;;;;;;;;;;;5111686;28;20310;-73
2022/12/10 12:04:05;;;;;;;;;;;;;;;;;;5111874;27;19932;-74
2022/12/10 12:06:32;;;;;;;;;;;;;;;;;;5111736;28;19919;-73
2022/12/10 12:08:58;;;;;;;;;;;;;;;;;;5111223;28;20346;-73
2022/12/10 12:11:24;;;;;;;;;;;;;;;;;;5111598;28;19946;-73
2022/12/10 12:13:49;;;;;;;;;;;;;;;;;;5111495;28;20019;-73
2022/12/10 12:17:27;;;;;;;;;;;;;;;;;;5092118;27;19923;-73
2022/12/10 12:19:53;;;;;;;;;;;;;;;;;;5091269;28;20343;-73
2022/12/10 12:22:19;;;;;;;;;;;;;;;;;;5089571;28;19909;-73
2022/12/10 12:24:46;;;;;;;;;;;;;;;;;;5091190;28;19916;-73
2022/12/10 12:27:12;;;;;;;;;;;;;;;;;;5091105;28;20428;-73
2022/12/10 12:30:35;;;;;;;;;;;;;;;;;;5111438;27;19922;-73
2022/12/10 12:33:32;;;;;;;;;;;;;;;;;;5091828;27;19922;-74
2022/12/10 12:38:08;;;;;;;;;;;;;;;;;;5111759;27;19922;-75
2022/12/10 12:44:00;;;;;;;;;;;;;;;;;;5152752;27;20007;-72
2022/12/10 12:48:56;;;;;;;;;;;;;;;;;;5152917;27;20006;-72
2022/12/10 12:51:22;;;;;;;;;;;;;;;;;;5152457;27;19954;-73
2022/12/10 12:53:48;;;;;;;;;;;;;;;;;;5153147;27;19913;-73
2022/12/10 12:56:34;;;;;;;;;;;;;;;;;;5112524;27;19923;-74
2022/12/10 12:59:00;;;;;;;;;;;;;;;;;;5111226;28;19999;-74
2022/12/10 13:01:26;;;;;;;;;;;;;;;;;;5111601;28;20401;-74
2022/12/10 13:04:06;;;;;;;;;;;;;;;;;;5091157;28;19923;-72
2022/12/10 13:06:32;;;;;;;;;;;;;;;;;;5091335;28;19958;-73
2022/12/10 13:08:58;;;;;;;;;;;;;;;;;;5091177;28;19912;-73
2022/12/10 13:15:53;;;;;;;;;;;;;;;;;;5111884;27;19923;-73
2022/12/10 13:18:20;;;;;;;;;;;;;;;;;;5111152;28;20006;-72
2022/12/10 13:22:01;;;;;;;;;;;;;;;;;;5091573;27;19912;-75
2022/12/10 13:24:27;;;;;;;;;;;;;;;;;;5091280;28;19919;-72
2022/12/10 13:28:50;;;;;;;;;;;;;;;;;;5111592;27;20291;-73
2022/12/10 13:31:16;;;;;;;;;;;;;;;;;;5111703;28;19975;-73
2022/12/10 13:33:42;;;;;;;;;;;;;;;;;;5111170;28;20364;-74
2022/12/10 13:36:08;;;;;;;;;;;;;;;;;;5111529;28;19954;-74
2022/12/10 13:38:34;;;;;;;;;;;;;;;;;;5111583;28;19998;-74
2022/12/10 13:46:29;;;;;;;;;;;;;;;;;;5110968;28;19914;-75
2022/12/10 13:48:55;;;;;;;;;;;;;;;;;;5111324;28;19998;-73
2022/12/10 13:51:21;;;;;;;;;;;;;;;;;;5109989;28;19908;-74
2022/12/10 13:53:47;;;;;;;;;;;;;;;;;;5110766;28;19908;-74
2022/12/10 13:56:13;;;;;;;;;;;;;;;;;;5109879;28;20351;-74
2022/12/10 13:58:39;;;;;;;;;;;;;;;;;;5111280;28;20415;-73
2022/12/10 14:04:27;;;;;;;;;;;;;;;;;;5091476;27;19913;-73
2022/12/10 14:06:53;;;;;;;;;;;;;;;;;;5091227;28;19935;-74
2022/12/10 14:09:20;;;;;;;;;;;;;;;;;;5090793;28;19912;-73
2022/12/10 14:11:46;;;;;;;;;;;;;;;;;;5089857;28;20330;-74
2022/12/10 14:14:12;;;;;;;;;;;;;;;;;;5091463;28;19912;-74
2022/12/10 14:16:38;;;;;;;;;;;;;;;;;;5090775;28;19912;-74
2022/12/10 14:19:04;;;;;;;;;;;;;;;;;;5090983;28;19939;-73
2022/12/10 14:21:29;;;;;;;;;;;;;;;;;;5089336;28;19998;-73
2022/12/10 14:23:57;;;;;;;;;;;;;;;;;;5089507;28;19916;-73
2022/12/10 14:26:45;;;;;;;;;;;;;;;;;;5112429;27;20386;-72
2022/12/10 14:29:10;;;;;;;;;;;;;;;;;;5111232;28;19955;-74
2022/12/10 14:31:36;;;;;;;;;;;;;;;;;;5111653;28;19908;-72
2022/12/10 14:34:02;;;;;;;;;;;;;;;;;;5111586;28;19920;-74
2022/12/10 14:36:28;;;;;;;;;;;;;;;;;;5111277;28;19915;-75
2022/12/10 14:38:54;;;;;;;;;;;;;;;;;;5111726;28;20280;-75
2022/12/10 14:41:20;;;;;;;;;;;;;;;;;;5111436;28;20319;-75
2022/12/10 14:43:46;;;;;;;;;;;;;;;;;;5110942;28;20017;-73
2022/12/10 14:46:12;;;;;;;;;;;;;;;;;;5111192;28;19927;-72
2022/12/10 14:48:38;;;;;;;;;;;;;;;;;;5109947;28;20011;-72
2022/12/10 14:51:04;;;;;;;;;;;;;;;;;;5110718;28;19908;-72
2022/12/10 14:53:30;;;;;;;;;;;;;;;;;;5109935;28;19923;-72
2022/12/10 14:55:56;;;;;;;;;;;;;;;;;;5111099;28;20336;-73
2022/12/10 14:58:22;;;;;;;;;;;;;;;;;;5110787;28;20410;-73
2022/12/10 15:00:48;;;;;;;;;;;;;;;;;;5109672;28;20014;-76
2022/12/10 15:03:14;;;;;;;;;;;;;;;;;;5110999;28;19908;-74
2022/12/10 15:05:39;;;;;;;;;;;;;;;;;;5110396;28;19970;-74
2022/12/10 15:08:05;;;;;;;;;;;;;;;;;;5109720;28;19908;-75
2022/12/10 15:10:31;;;;;;;;;;;;;;;;;;5109546;28;19947;-74
2022/12/10 15:12:57;;;;;;;;;;;;;;;;;;5110428;28;19915;-75
2022/12/10 15:15:23;;;;;;;;;;;;;;;;;;5110814;28;19912;-74
2022/12/10 15:17:49;;;;;;;;;;;;;;;;;;5110403;28;19998;-75
2022/12/10 15:20:15;;;;;;;;;;;;;;;;;;5110727;28;19915;-74
2022/12/10 15:22:41;;;;;;;;;;;;;;;;;;5110676;28;19908;-73
2022/12/10 15:25:07;;;;;;;;;;;;;;;;;;5109789;28;20030;-73
2022/12/10 15:27:33;;;;;;;;;;;;;;;;;;5110510;28;20379;-72
2022/12/10 15:29:59;;;;;;;;;;;;;;;;;;5110513;28;20387;-72
2022/12/10 15:32:26;;;;;;;;;;;;;;;;;;5109930;28;19915;-74
2022/12/10 15:34:52;;;;;;;;;;;;;;;;;;5110436;28;19912;-74
2022/12/10 15:37:18;;;;;;;;;;;;;;;;;;5099669;28;19908;-73
2022/12/10 15:39:44;;;;;;;;;;;;;;;;;;5096210;28;19975;-73
2022/12/10 15:42:10;;;;;;;;;;;;;;;;;;5097180;28;20363;-73
2022/12/10 15:44:38;;;;;;;;;;;;;;;;;;5096565;28;19912;-73
2022/12/10 15:47:04;;;;;;;;;;;;;;;;;;5096112;28;20418;-74
2022/12/10 15:49:30;;;;;;;;;;;;;;;;;;5096517;28;19916;-73
2022/12/10 15:51:56;;;;;;;;;;;;;;;;;;5096483;28;19908;-73
2022/12/10 15:54:22;;;;;;;;;;;;;;;;;;5096020;28;19908;-74
2022/12/10 15:56:48;;;;;;;;;;;;;;;;;;5095198;28;19915;-74
2022/12/10 15:59:14;;;;;;;;;;;;;;;;;;5096356;28;19908;-74
2022/12/10 16:01:40;;;;;;;;;;;;;;;;;;5095846;28;19943;-74
2022/12/10 16:04:05;;;;;;;;;;;;;;;;;;5096320;28;19909;-73
2022/12/10 16:06:31;;;;;;;;;;;;;;;;;;5096280;28;19923;-74
2022/12/10 16:08:57;;;;;;;;;;;;;;;;;;5095740;28;19992;-74
2022/12/10 16:11:24;;;;;;;;;;;;;;;;;;5096161;28;19912;-75
2022/12/10 16:13:50;;;;;;;;;;;;;;;;;;5096007;28;19908;-73
2022/12/10 16:16:17;;;;;;;;;;;;;;;;;;5094304;28;19977;-73
2022/12/10 16:18:43;;;;;;;;;;;;;;;;;;5094647;28;19998;-73
2022/12/10 16:21:09;;;;;;;;;;;;;;;;;;5096027;28;20000;-73
2022/12/10 16:23:35;;;;;;;;;;;;;;;;;;5095899;28;19915;-73
2022/12/10 16:26:01;;;;;;;;;;;;;;;;;;5095599;28;19928;-74
2022/12/10 16:28:27;;;;;;;;;;;;;;;;;;5095474;28;19908;-73
2022/12/10 16:30:52;;;;;;;;;;;;;;;;;;5094411;28;20010;-73
2022/12/10 16:33:18;;;;;;;;;;;;;;;;;;5095671;28;19908;-73
2022/12/10 16:35:44;;;;;;;;;;;;;;;;;;5095207;28;19909;-73
2022/12/10 16:38:11;;;;;;;;;;;;;;;;;;5095537;28;19917;-74
2022/12/10 16:40:37;;;;;;;;;;;;;;;;;;5094204;28;19916;-74
2022/12/10 16:43:03;;;;;;;;;;;;;;;;;;5095185;28;19909;-74
2022/12/10 16:45:29;;;;;;;;;;;;;;;;;;5095493;28;20391;-74
2022/12/10 16:47:55;;;;;;;;;;;;;;;;;;5094751;28;20360;-74
2022/12/10 16:50:21;;;;;;;;;;;;;;;;;;5094674;28;19915;-75
2022/12/10 16:52:47;;;;;;;;;;;;;;;;;;5095437;28;19999;-74
2022/12/10 16:55:13;;;;;;;;;;;;;;;;;;5095562;28;20284;-74
2022/12/10 16:57:44;;;;;;;;;;;;;;;;;;5094892;28;19908;-74
2022/12/10 17:00:10;;;;;;;;;;;;;;;;;;5095240;28;20016;-74
2022/12/10 17:02:36;;;;;;;;;;;;;;;;;;5095078;28;20397;-74
2022/12/10 17:05:02;;;;;;;;;;;;;;;;;;5094683;28;19920;-74
2022/12/10 17:07:28;;;;;;;;;;;;;;;;;;5095034;28;19908;-74
2022/12/10 17:09:54;;;;;;;;;;;;;;;;;;5094978;28;19908;-74
2022/12/10 17:12:20;;;;;;;;;;;;;;;;;;5094540;28;19908;-74
2022/12/10 17:14:46;;;;;;;;;;;;;;;;;;5095239;28;19953;-74
2022/12/10 17:17:12;;;;;;;;;;;;;;;;;;5093234;28;20392;-74
2022/12/10 17:19:40;;;;;;;;;;;;;;;;;;5094797;28;19908;-74
2022/12/10 17:22:05;;;;;;;;;;;;;;;;;;5094714;28;19908;-73
2022/12/10 17:24:31;;;;;;;;;;;;;;;;;;5094474;28;20341;-73
2022/12/10 17:26:57;;;;;;;;;;;;;;;;;;5094766;28;19915;-74
2022/12/10 17:29:23;;;;;;;;;;;;;;;;;;5093364;28;19915;-73
2022/12/10 17:31:49;;;;;;;;;;;;;;;;;;5094209;28;19944;-75
2022/12/10 17:34:16;;;;;;;;;;;;;;;;;;5093454;28;19908;-73
2022/12/10 17:36:42;;;;;;;;;;;;;;;;;;5094455;28;19950;-73
2022/12/10 17:39:09;;;;;;;;;;;;;;;;;;5094039;28;19944;-74
2022/12/10 17:41:36;;;;;;;;;;;;;;;;;;5094351;28;20007;-74
2022/12/10 17:46:34;;;;;;;;;;;;;;;;;;5111587;27;20379;-73
2022/12/10 17:49:01;;;;;;;;;;;;;;;;;;5110368;28;20000;-75
2022/12/10 17:51:27;;;;;;;;;;;;;;;;;;5111549;28;19908;-73
2022/12/10 17:53:53;;;;;;;;;;;;;;;;;;5111138;28;19908;-75